createdAt,value
2017-12-04T10:43:25.176Z,85
2017-12-04T10:44:26.001Z,90
2017-12-04T10:45:25.713Z,75
2017-12-04T10:46:25.964Z,70
2017-12-04T10:47:25.652Z,70
2017-12-04T10:48:25.389Z,70
2017-12-04T10:49:25.072Z,75
2017-12-04T10:50:25.329Z,80
2017-12-04T10:51:25.321Z,75
2017-12-04T10:52:25.584Z,70
2017-12-04T10:53:25.010Z,65
2017-12-04T10:54:25.285Z,65
2017-12-04T10:55:25.810Z,65
2017-12-04T10:56:25.520Z,65
2017-12-04T10:57:26.274Z,70
2017-12-04T10:58:25.765Z,70
2017-12-04T10:59:25.180Z,70
2017-12-04T11:00:25.186Z,75
2017-12-04T11:01:25.428Z,80
2017-12-04T11:02:25.417Z,85
2017-12-04T11:03:25.374Z,85
2017-12-04T11:04:25.089Z,85
2017-12-04T11:05:25.354Z,80
2017-12-04T11:06:24.783Z,65
2017-12-04T11:07:24.760Z,60
2017-12-04T11:08:25.558Z,60
2017-12-04T11:09:25.284Z,60
2017-12-04T11:10:24.975Z,65
2017-12-04T11:11:25.500Z,75
2017-12-04T11:12:24.942Z,80
2017-12-04T11:13:24.674Z,90
2017-12-04T11:14:24.908Z,90
2017-12-04T11:15:24.618Z,90
2017-12-04T11:16:25.202Z,95
2017-12-04T11:17:24.851Z,95
2017-12-04T11:18:24.841Z,90
2017-12-04T11:19:25.488Z,85
2017-12-04T11:20:25.351Z,85
2017-12-04T11:21:25.052Z,85
2017-12-04T11:22:25.057Z,80
2017-12-04T11:23:25.318Z,75
2017-12-04T11:24:25.286Z,70
2017-12-04T11:25:24.445Z,65
2017-12-04T11:26:24.969Z,80
2017-12-04T11:27:24.707Z,95
2017-12-04T11:28:25.221Z,95
2017-12-04T11:29:24.917Z,85
2017-12-04T11:30:24.355Z,80
2017-12-04T11:31:24.884Z,80
2017-12-04T11:32:24.882Z,80
2017-12-04T11:33:24.847Z,90
2017-12-04T11:34:24.558Z,90
2017-12-04T11:35:24.293Z,85
2017-12-04T11:36:24.794Z,85
2017-12-04T11:37:24.507Z,95
2017-12-04T11:38:24.759Z,95
2017-12-04T11:39:24.205Z,95
2017-12-04T11:40:24.186Z,95
2017-12-04T11:41:24.716Z,95
2017-12-04T11:42:24.421Z,95
2017-12-04T11:43:24.449Z,85
2017-12-04T11:44:24.677Z,65
2017-12-04T11:45:24.652Z,75
2017-12-04T11:46:24.078Z,90
2017-12-04T11:47:24.069Z,100
2017-12-04T11:48:24.054Z,110
2017-12-04T11:49:24.292Z,100
2017-12-04T11:50:24.581Z,95
2017-12-04T11:51:24.541Z,90
2017-12-04T11:52:24.522Z,80
2017-12-04T11:53:23.976Z,75
2017-12-04T11:54:23.946Z,75
2017-12-04T11:55:24.741Z,70
2017-12-04T11:56:23.904Z,60
2017-12-04T11:57:24.445Z,60
2017-12-04T11:58:23.870Z,60
2017-12-04T11:59:24.143Z,65
2017-12-04T12:00:24.666Z,70
2017-12-04T12:01:24.363Z,65
2017-12-04T12:02:24.340Z,65
2017-12-04T12:03:24.351Z,70
2017-12-04T12:04:24.051Z,75
2017-12-04T12:05:24.313Z,75
2017-12-04T12:06:24.300Z,75
2017-12-04T12:07:24.016Z,75
2017-12-04T12:08:23.983Z,85
2017-12-04T12:09:23.991Z,85
2017-12-04T12:10:23.944Z,85
2017-12-04T12:11:23.644Z,90
2017-12-04T12:12:24.212Z,95
2017-12-04T12:13:23.888Z,90
2017-12-04T12:14:23.591Z,75
2017-12-04T12:15:23.844Z,65
2017-12-04T12:16:24.127Z,65
2017-12-04T12:17:23.822Z,70
2017-12-04T12:18:24.388Z,80
2017-12-04T12:19:24.055Z,85
2017-12-04T12:20:24.578Z,85
2017-12-04T12:21:24.022Z,85
2017-12-04T12:22:23.997Z,85
2017-12-04T12:23:23.722Z,80
2017-12-04T12:24:23.692Z,75
2017-12-04T12:25:23.677Z,70
2017-12-04T12:26:23.657Z,65
2017-12-04T12:27:23.367Z,65
2017-12-04T12:28:23.372Z,70
2017-12-04T12:29:23.621Z,70
2017-12-04T12:30:23.602Z,70
2017-12-04T12:31:23.589Z,65
2017-12-04T12:32:24.373Z,60
2017-12-04T12:33:23.805Z,50
2017-12-04T12:34:23.802Z,45
2017-12-04T12:35:23.539Z,40
2017-12-04T12:36:23.484Z,45
2017-12-04T12:37:23.466Z,45
2017-12-04T12:38:23.723Z,50
2017-12-04T12:39:23.714Z,50
2017-12-04T12:40:23.423Z,45
2017-12-04T12:41:23.398Z,55
2017-12-04T12:42:23.700Z,65
2017-12-04T12:43:23.371Z,70
2017-12-04T12:44:23.628Z,65
2017-12-04T12:45:23.898Z,60
2017-12-04T12:46:23.313Z,55
2017-12-04T12:47:23.567Z,50
2017-12-04T12:48:23.003Z,50
2017-12-04T12:49:23.527Z,45
2017-12-04T12:50:23.516Z,40
2017-12-04T12:51:23.223Z,35
2017-12-04T12:52:22.954Z,35
2017-12-04T12:53:23.190Z,45
2017-12-04T12:54:22.907Z,50
2017-12-04T12:55:23.160Z,60
2017-12-04T12:56:23.705Z,70
2017-12-04T12:57:23.415Z,80
2017-12-04T12:58:22.831Z,85
2017-12-04T12:59:23.085Z,85
2017-12-04T13:00:23.069Z,85
2017-12-04T13:01:23.073Z,85
2017-12-04T13:02:23.036Z,75
2017-12-04T13:03:23.286Z,55
2017-12-04T13:04:23.047Z,40
2017-12-04T13:05:23.008Z,30
2017-12-04T13:06:23.242Z,30
2017-12-04T13:07:22.954Z,35
2017-12-04T13:08:22.933Z,40
2017-12-04T13:09:22.648Z,45
2017-12-04T13:10:23.446Z,55
2017-12-04T13:11:22.883Z,60
2017-12-04T13:12:23.417Z,70
2017-12-04T13:13:22.847Z,90
2017-12-04T13:14:22.845Z,110
2017-12-04T13:15:22.811Z,130
2017-12-04T13:16:22.532Z,125
2017-12-04T13:17:22.509Z,110
2017-12-04T13:18:22.769Z,90
2017-12-04T13:19:22.745Z,85
2017-12-04T13:20:22.999Z,75
2017-12-04T13:21:22.437Z,65
2017-12-04T13:22:23.270Z,50
2017-12-04T13:23:22.680Z,45
2017-12-04T13:24:22.657Z,40
2017-12-04T13:25:22.372Z,35
2017-12-04T13:26:22.976Z,35
2017-12-04T13:27:22.880Z,40
2017-12-04T13:28:22.592Z,45
2017-12-04T13:29:22.584Z,50
2017-12-04T13:30:22.831Z,50
2017-12-04T13:31:22.265Z,55
2017-12-04T13:32:22.796Z,70
2017-12-04T13:33:22.232Z,80
2017-12-04T13:34:22.295Z,85
2017-12-04T13:35:22.215Z,65
2017-12-04T13:36:22.453Z,55
2017-12-04T13:37:22.714Z,45
2017-12-04T13:38:22.423Z,45
2017-12-04T13:39:22.670Z,45
2017-12-04T13:40:22.390Z,50
2017-12-04T13:41:22.932Z,55
2017-12-04T13:42:22.085Z,55
2017-12-04T13:43:22.352Z,60
2017-12-04T13:44:22.594Z,60
2017-12-04T13:45:22.319Z,55
2017-12-04T13:46:22.827Z,55
2017-12-04T13:47:21.989Z,55
2017-12-04T13:48:22.516Z,55
2017-12-04T13:49:21.952Z,50
2017-12-04T13:50:22.209Z,50
2017-12-04T13:51:22.199Z,45
2017-12-04T13:52:22.764Z,45
2017-12-04T13:53:22.449Z,45
2017-12-04T13:54:21.869Z,45
2017-12-04T13:55:22.686Z,45
2017-12-04T13:56:22.406Z,50
2017-12-04T13:57:22.645Z,50
2017-12-04T13:58:22.883Z,50
2017-12-04T13:59:22.595Z,50
2017-12-04T14:00:21.791Z,50
2017-12-04T14:01:22.047Z,45
2017-12-04T14:02:22.582Z,45
2017-12-04T14:03:21.984Z,45
2017-12-04T14:04:21.969Z,45
2017-12-04T14:05:22.252Z,40
2017-12-04T14:06:22.238Z,35
2017-12-04T14:07:21.945Z,40
2017-12-04T14:08:21.898Z,35
2017-12-04T14:09:21.608Z,30
2017-12-04T14:10:22.140Z,30
2017-12-04T14:11:21.847Z,30
2017-12-04T14:12:21.834Z,30
2017-12-04T14:13:22.088Z,30
2017-12-04T14:14:22.611Z,25
2017-12-04T14:15:22.047Z,25
2017-12-04T14:16:22.056Z,25
2017-12-04T14:17:22.022Z,25
2017-12-04T14:18:21.719Z,25
2017-12-04T14:19:21.738Z,25
2017-12-04T14:20:21.709Z,25
2017-12-04T14:21:21.677Z,25
2017-12-04T14:22:21.917Z,20
2017-12-04T14:23:21.384Z,20
2017-12-04T14:24:21.886Z,20
2017-12-04T14:25:21.871Z,20
2017-12-04T14:26:21.898Z,20
2017-12-04T14:27:21.298Z,20
2017-12-04T14:28:21.544Z,20
2017-12-04T14:29:21.525Z,20
2017-12-04T14:30:21.566Z,20
2017-12-04T14:31:21.764Z,20
2017-12-04T14:32:21.219Z,20
2017-12-04T14:33:21.454Z,20
2017-12-04T14:34:21.709Z,20
2017-12-04T14:35:21.430Z,20
2017-12-04T14:36:21.412Z,25
2017-12-04T14:37:21.386Z,20
2017-12-04T14:38:21.365Z,20
2017-12-04T14:39:21.893Z,20
2017-12-04T14:40:21.330Z,15
2017-12-04T14:41:21.327Z,15
2017-12-04T14:42:21.027Z,15
2017-12-04T14:43:21.846Z,15
2017-12-04T14:44:21.533Z,15
2017-12-04T14:45:21.829Z,15
2017-12-04T14:46:21.511Z,10
2017-12-04T14:47:21.478Z,10
2017-12-04T14:48:21.183Z,10
2017-12-04T14:49:21.725Z,10
2017-12-04T14:50:21.153Z,10
2017-12-04T14:51:34.442Z,10
2017-12-04T14:52:21.142Z,10
2017-12-04T14:53:21.105Z,10
2017-12-04T14:54:21.091Z,5
2017-12-04T14:55:21.882Z,10
2017-12-04T14:56:21.324Z,5
2017-12-04T14:57:20.757Z,5
2017-12-04T14:58:20.761Z,5
2017-12-04T14:59:21.012Z,5
2017-12-04T15:00:21.523Z,5
2017-12-04T15:01:21.234Z,5
2017-12-04T15:02:21.510Z,5
2017-12-04T15:03:21.504Z,5
2017-12-04T15:04:20.904Z,5
2017-12-04T15:05:20.630Z,5
2017-12-04T15:06:21.701Z,5
2017-12-04T15:07:21.130Z,0
2017-12-04T15:08:20.835Z,0
2017-12-04T15:09:20.543Z,0
2017-12-04T15:10:20.799Z,0
2017-12-04T15:11:21.331Z,0
2017-12-04T15:12:20.537Z,0
2017-12-04T15:13:21.019Z,0
2017-12-04T15:14:21.291Z,0
2017-12-04T15:15:21.255Z,0
2017-12-04T15:16:21.237Z,0
2017-12-04T15:17:21.225Z,0
2017-12-04T15:18:21.232Z,0
2017-12-04T15:19:20.950Z,0
2017-12-04T15:20:20.895Z,0
2017-12-04T15:21:20.877Z,0
2017-12-04T15:22:20.871Z,0
2017-12-04T15:23:20.842Z,0
2017-12-04T15:24:20.553Z,0
2017-12-04T15:25:20.565Z,0
2017-12-04T15:26:20.802Z,0
2017-12-04T15:27:20.503Z,0
2017-12-04T15:28:20.754Z,0
2017-12-04T15:29:20.467Z,0
2017-12-04T15:30:20.176Z,0
2017-12-04T15:31:20.705Z,0
2017-12-04T15:32:20.422Z,0
2017-12-04T15:33:20.996Z,0
2017-12-04T15:34:21.213Z,0
2017-12-04T15:35:20.901Z,0
2017-12-04T15:36:20.614Z,0
2017-12-04T15:37:20.054Z,0
2017-12-04T15:38:20.303Z,0
2017-12-04T15:39:20.288Z,0
2017-12-04T15:40:20.270Z,0
2017-12-04T15:41:19.983Z,0
2017-12-04T15:42:20.256Z,0
2017-12-04T15:43:20.506Z,0
2017-12-04T15:44:19.930Z,0
2017-12-04T15:45:20.201Z,0
2017-12-04T15:46:20.162Z,0
2017-12-04T15:47:20.417Z,0
2017-12-04T15:48:20.140Z,0
2017-12-04T15:49:20.123Z,0
2017-12-04T15:50:20.380Z,0
2017-12-04T15:51:20.091Z,0
2017-12-04T15:52:20.335Z,0
2017-12-04T15:53:20.045Z,0
2017-12-04T15:54:20.026Z,0
2017-12-04T15:55:20.300Z,0
2017-12-04T15:56:20.266Z,0
2017-12-04T15:57:20.567Z,0
2017-12-04T15:58:20.239Z,0
2017-12-04T15:59:19.933Z,0
2017-12-04T16:00:20.455Z,0
2017-12-04T16:01:20.204Z,0
2017-12-04T16:02:20.436Z,0
2017-12-04T16:03:19.876Z,0
2017-12-04T16:04:19.881Z,0
2017-12-04T16:05:20.132Z,0
2017-12-04T16:06:19.807Z,0
2017-12-04T16:07:19.798Z,0
2017-12-04T16:08:20.101Z,0
2017-12-04T16:09:20.028Z,0
2017-12-04T16:10:20.581Z,0
2017-12-04T16:11:19.988Z,0
2017-12-04T16:12:19.974Z,0
2017-12-04T16:13:19.681Z,0
2017-12-04T16:14:19.715Z,0
2017-12-04T16:15:19.917Z,0
2017-12-04T16:16:19.634Z,0
2017-12-04T16:17:19.610Z,0
2017-12-04T16:18:19.596Z,0
2017-12-04T16:19:19.874Z,0
2017-12-04T16:20:20.113Z,0
2017-12-04T16:21:19.545Z,0
2017-12-04T16:22:19.524Z,0
2017-12-04T16:23:19.789Z,0
2017-12-04T16:24:20.031Z,0
2017-12-04T16:25:19.756Z,0
2017-12-04T16:26:19.456Z,0
2017-12-04T16:27:19.433Z,0
2017-12-04T16:28:19.423Z,0
2017-12-04T16:29:19.410Z,0
2017-12-04T16:30:19.924Z,0
2017-12-04T16:31:19.379Z,0
2017-12-04T16:32:19.357Z,0
2017-12-04T16:33:19.607Z,0
2017-12-04T16:34:19.334Z,0
2017-12-04T16:35:20.121Z,0
2017-12-04T16:36:19.837Z,0
2017-12-04T16:37:19.526Z,0
2017-12-04T16:38:19.524Z,0
2017-12-04T16:39:19.510Z,0
2017-12-04T16:40:19.223Z,0
2017-12-04T16:41:19.232Z,0
2017-12-04T16:42:18.896Z,0
2017-12-04T16:43:18.877Z,0
2017-12-04T16:44:19.203Z,0
2017-12-04T16:45:19.124Z,0
2017-12-04T16:46:19.411Z,0
2017-12-04T16:47:19.634Z,0
2017-12-04T16:48:19.622Z,0
2017-12-04T16:49:19.654Z,0
2017-12-04T16:50:19.569Z,0
2017-12-04T16:51:19.029Z,0
2017-12-04T16:52:19.548Z,0
2017-12-04T16:53:19.249Z,0
2017-12-04T16:54:19.228Z,0
2017-12-04T16:55:18.947Z,0
2017-12-04T16:56:19.266Z,0
2017-12-04T16:57:18.627Z,0
2017-12-04T16:58:18.897Z,0
2017-12-04T16:59:19.156Z,0
2017-12-04T17:00:19.687Z,0
2017-12-04T17:01:19.377Z,0
2017-12-04T17:02:19.092Z,0
2017-12-04T17:03:19.366Z,0
2017-12-04T17:04:19.085Z,0
2017-12-04T17:05:18.776Z,0
2017-12-04T17:06:19.015Z,0
2017-12-04T17:07:18.729Z,0
2017-12-04T17:08:18.707Z,0
2017-12-04T17:09:19.504Z,0
2017-12-04T17:10:18.705Z,0
2017-12-04T17:11:18.949Z,0
2017-12-04T17:12:19.207Z,0
2017-12-04T17:13:18.894Z,0
2017-12-04T17:14:19.179Z,0
2017-12-04T17:15:18.889Z,0
2017-12-04T17:16:18.566Z,0
2017-12-04T17:17:18.277Z,0
2017-12-04T17:18:19.082Z,0
2017-12-04T17:19:18.519Z,0
2017-12-04T17:20:18.505Z,0
2017-12-04T17:21:18.750Z,0
2017-12-04T17:22:18.741Z,0
2017-12-04T17:23:18.451Z,0
2017-12-04T17:24:19.243Z,0
2017-12-04T17:25:18.419Z,0
2017-12-04T17:26:18.665Z,0
2017-12-04T17:27:18.375Z,0
2017-12-04T17:28:18.637Z,0
2017-12-04T17:29:18.342Z,0
2017-12-04T17:30:18.598Z,0
2017-12-04T17:31:18.049Z,0
2017-12-04T17:32:18.564Z,0
2017-12-04T17:33:18.268Z,0
2017-12-04T17:34:18.275Z,0
2017-12-04T17:35:18.510Z,0
2017-12-04T17:36:18.510Z,0
2017-12-04T17:37:18.212Z,0
2017-12-04T17:38:18.451Z,0
2017-12-04T17:39:18.161Z,0
2017-12-04T17:40:18.166Z,0
2017-12-04T17:41:18.122Z,0
2017-12-04T17:42:17.843Z,0
2017-12-04T17:43:18.366Z,0
2017-12-04T17:44:18.096Z,0
2017-12-04T17:45:18.058Z,0
2017-12-04T17:46:18.038Z,0
2017-12-04T17:47:18.600Z,0
2017-12-04T17:48:18.003Z,0
2017-12-04T17:49:18.275Z,0
2017-12-04T17:50:17.973Z,0
2017-12-04T17:51:18.224Z,0
2017-12-04T17:52:18.474Z,0
2017-12-04T17:53:17.924Z,0
2017-12-04T17:54:18.167Z,0
2017-12-04T17:55:18.151Z,0
2017-12-04T17:56:17.591Z,0
2017-12-04T17:57:18.406Z,0
2017-12-04T17:58:17.825Z,0
2017-12-04T17:59:18.079Z,0
2017-12-04T18:00:17.812Z,0
2017-12-04T18:01:18.319Z,0
2017-12-04T18:02:17.491Z,0
2017-12-04T18:03:17.746Z,0
2017-12-04T18:04:18.265Z,0
2017-12-04T18:05:17.702Z,0
2017-12-04T18:06:17.688Z,0
2017-12-04T18:07:17.975Z,0
2017-12-04T18:08:18.202Z,0
2017-12-04T18:09:17.367Z,0
2017-12-04T18:10:17.894Z,0
2017-12-04T18:11:17.869Z,0
2017-12-04T18:12:18.121Z,0
2017-12-04T18:13:17.289Z,0
2017-12-04T18:14:17.836Z,0
2017-12-04T18:15:18.126Z,0
2017-12-04T18:16:17.538Z,0
2017-12-04T18:17:17.759Z,0
2017-12-04T18:18:17.476Z,0
2017-12-04T18:19:18.006Z,0
2017-12-04T18:20:17.731Z,0
2017-12-04T18:21:17.436Z,0
2017-12-04T18:22:17.444Z,0
2017-12-04T18:23:17.392Z,0
2017-12-04T18:24:17.643Z,0
2017-12-04T18:25:17.619Z,0
2017-12-04T18:26:17.924Z,0
2017-12-04T18:27:17.872Z,0
2017-12-04T18:28:17.301Z,0
2017-12-04T18:29:17.282Z,0
2017-12-04T18:30:17.274Z,0
2017-12-04T18:31:17.240Z,0
2017-12-04T18:32:16.956Z,0
2017-12-04T18:33:16.940Z,0
2017-12-04T18:34:25.652Z,0
2017-12-04T18:35:16.900Z,0
2017-12-04T18:36:17.185Z,0
2017-12-04T18:37:17.955Z,0
2017-12-04T18:38:17.119Z,0
2017-12-04T18:39:17.124Z,0
2017-12-04T18:40:17.654Z,0
2017-12-04T18:41:17.617Z,0
2017-12-04T18:42:17.060Z,0
2017-12-04T18:43:17.586Z,0
2017-12-04T18:44:17.560Z,0
2017-12-04T18:45:17.572Z,0
2017-12-04T18:46:17.541Z,0
2017-12-04T18:47:16.706Z,0
2017-12-04T18:48:16.946Z,0
2017-12-04T18:49:17.197Z,0
2017-12-04T18:50:17.454Z,0
2017-12-04T18:51:17.456Z,0
2017-12-04T18:52:16.879Z,0
2017-12-04T18:53:17.415Z,0
2017-12-04T18:54:16.566Z,0
2017-12-04T18:55:17.091Z,0
2017-12-04T18:56:17.094Z,0
2017-12-04T18:57:17.347Z,0
2017-12-04T18:58:16.798Z,0
2017-12-04T18:59:17.045Z,0
2017-12-04T19:00:17.002Z,0
2017-12-04T19:01:17.278Z,0
2017-12-04T19:02:17.240Z,0
2017-12-04T19:03:16.982Z,0
2017-12-04T19:04:16.389Z,0
2017-12-04T19:05:16.644Z,0
2017-12-04T19:06:16.626Z,0
2017-12-04T19:07:16.879Z,0
2017-12-04T19:08:17.180Z,0
2017-12-04T19:09:17.120Z,0
2017-12-04T19:10:16.566Z,0
2017-12-04T19:11:16.265Z,0
2017-12-04T19:12:16.520Z,0
2017-12-04T19:13:17.068Z,0
2017-12-04T19:14:16.570Z,0
2017-12-04T19:15:17.323Z,0
2017-12-04T19:16:16.176Z,0
2017-12-04T19:17:16.706Z,0
2017-12-04T19:18:16.687Z,0
2017-12-04T19:19:16.669Z,0
2017-12-04T19:20:16.113Z,0
2017-12-04T19:21:16.382Z,0
2017-12-04T19:22:16.380Z,0
2017-12-04T19:23:16.869Z,0
2017-12-04T19:24:16.591Z,0
2017-12-04T19:25:16.562Z,0
2017-12-04T19:26:16.612Z,0
2017-12-04T19:27:16.257Z,0
2017-12-04T19:28:16.827Z,0
2017-12-04T19:29:16.783Z,0
2017-12-04T19:30:16.512Z,0
2017-12-04T19:31:16.189Z,0
2017-12-04T19:32:16.169Z,0
2017-12-04T19:33:16.157Z,0
2017-12-04T19:34:15.861Z,0
2017-12-04T19:35:16.688Z,0
2017-12-04T19:36:16.095Z,0
2017-12-04T19:37:16.085Z,0
2017-12-04T19:38:16.081Z,0
2017-12-04T19:39:16.602Z,0
2017-12-04T19:40:15.755Z,0
2017-12-04T19:41:15.735Z,0
2017-12-04T19:42:15.990Z,0
2017-12-04T19:43:16.250Z,0
2017-12-04T19:44:15.956Z,0
2017-12-04T19:45:16.254Z,0
2017-12-04T19:46:15.921Z,0
2017-12-04T19:47:16.170Z,0
2017-12-04T19:48:15.648Z,0
2017-12-04T19:49:16.151Z,0
2017-12-04T19:50:16.142Z,0
2017-12-04T19:51:15.846Z,0
2017-12-04T19:52:16.365Z,0
2017-12-04T19:53:16.081Z,0
2017-12-04T19:54:15.782Z,0
2017-12-04T19:55:15.762Z,0
2017-12-04T19:56:15.761Z,0
2017-12-04T19:57:16.027Z,0
2017-12-04T19:58:15.988Z,0
2017-12-04T19:59:15.447Z,0
2017-12-04T20:00:15.997Z,0
2017-12-04T20:01:15.690Z,0
2017-12-04T20:02:15.409Z,0
2017-12-04T20:03:15.634Z,0
2017-12-04T20:04:15.612Z,0
2017-12-04T20:05:15.320Z,0
2017-12-04T20:06:15.868Z,0
2017-12-04T20:07:15.283Z,0
2017-12-04T20:08:15.848Z,0
2017-12-04T20:09:16.082Z,0
2017-12-04T20:10:15.515Z,0
2017-12-04T20:11:15.760Z,0
2017-12-04T20:12:15.466Z,0
2017-12-04T20:13:15.182Z,0
2017-12-04T20:14:15.741Z,0
2017-12-04T20:15:15.158Z,0
2017-12-04T20:16:15.415Z,0
2017-12-04T20:17:15.643Z,0
2017-12-04T20:18:15.641Z,0
2017-12-04T20:19:15.066Z,0
2017-12-04T20:20:15.601Z,0
2017-12-04T20:21:15.604Z,0
2017-12-04T20:22:15.845Z,0
2017-12-04T20:23:15.580Z,0
2017-12-04T20:24:15.815Z,0
2017-12-04T20:25:15.238Z,0
2017-12-04T20:26:14.953Z,0
2017-12-04T20:27:15.206Z,0
2017-12-04T20:28:14.919Z,0
2017-12-04T20:29:15.468Z,0
2017-12-04T20:30:15.443Z,0
2017-12-04T20:31:14.870Z,0
2017-12-04T20:32:14.863Z,0
2017-12-04T20:33:15.084Z,0
2017-12-04T20:34:15.374Z,0
2017-12-04T20:35:15.329Z,0
2017-12-04T20:36:15.597Z,0
2017-12-04T20:37:15.031Z,0
2017-12-04T20:38:15.275Z,0
2017-12-04T20:39:14.984Z,0
2017-12-04T20:40:14.691Z,0
2017-12-04T20:41:15.499Z,0
2017-12-04T20:42:15.224Z,0
2017-12-04T20:43:15.747Z,0
2017-12-04T20:44:15.184Z,0
2017-12-04T20:45:14.873Z,0
2017-12-04T20:46:15.788Z,0
2017-12-04T20:47:15.701Z,0
2017-12-04T20:48:14.834Z,0
2017-12-04T20:49:15.074Z,0
2017-12-04T20:50:15.077Z,0
2017-12-04T20:51:14.784Z,0
2017-12-04T20:52:14.748Z,0
2017-12-04T20:53:14.459Z,0
2017-12-04T20:54:14.985Z,0
2017-12-04T20:55:14.696Z,0
2017-12-04T20:56:14.688Z,0
2017-12-04T20:57:14.943Z,0
2017-12-04T20:58:14.926Z,0
2017-12-04T20:59:15.171Z,0
2017-12-04T21:00:14.610Z,0
2017-12-04T21:01:14.588Z,0
2017-12-04T21:02:15.125Z,0
2017-12-04T21:03:14.555Z,0
2017-12-04T21:04:14.809Z,0
2017-12-04T21:05:14.799Z,0
2017-12-04T21:06:14.498Z,0
2017-12-04T21:07:14.234Z,0
2017-12-04T21:08:14.476Z,0
2017-12-04T21:09:14.722Z,0
2017-12-04T21:10:14.463Z,0
2017-12-04T21:11:14.954Z,0
2017-12-04T21:12:14.463Z,0
2017-12-04T21:13:14.679Z,0
2017-12-04T21:14:14.369Z,0
2017-12-04T21:15:14.342Z,0
2017-12-04T21:16:14.362Z,0
2017-12-04T21:17:14.506Z,0
2017-12-04T21:18:14.830Z,0
2017-12-04T21:19:14.267Z,0
2017-12-04T21:20:14.268Z,0
2017-12-04T21:21:14.782Z,0
2017-12-04T21:22:14.213Z,0
2017-12-04T21:23:14.771Z,0
2017-12-04T21:24:14.449Z,0
2017-12-04T21:25:14.163Z,0
2017-12-04T21:26:14.427Z,0
2017-12-04T21:27:14.127Z,0
2017-12-04T21:28:14.386Z,0
2017-12-04T21:29:14.655Z,0
2017-12-04T21:30:14.078Z,0
2017-12-04T21:31:14.052Z,0
2017-12-04T21:32:14.610Z,0
2017-12-04T21:33:14.287Z,0
2017-12-04T21:34:14.039Z,0
2017-12-04T21:35:14.533Z,0
2017-12-04T21:36:13.969Z,0
2017-12-04T21:37:13.674Z,0
2017-12-04T21:38:14.476Z,0
2017-12-04T21:39:13.642Z,0
2017-12-04T21:40:13.891Z,0
2017-12-04T21:41:14.152Z,0
2017-12-04T21:42:13.857Z,0
2017-12-04T21:43:14.118Z,0
2017-12-04T21:44:13.821Z,0
2017-12-04T21:45:14.100Z,0
2017-12-04T21:46:14.085Z,0
2017-12-04T21:47:13.495Z,0
2017-12-04T21:48:13.792Z,0
2017-12-04T21:49:14.031Z,0
2017-12-04T21:50:14.010Z,0
2017-12-04T21:51:14.007Z,0
2017-12-04T21:52:14.221Z,0
2017-12-04T21:53:13.665Z,0
2017-12-04T21:54:13.916Z,0
2017-12-04T21:55:13.628Z,0
2017-12-04T21:56:13.337Z,0
2017-12-04T21:57:13.593Z,0
2017-12-04T21:58:13.589Z,0
2017-12-04T21:59:13.824Z,0
2017-12-04T22:00:13.807Z,0
2017-12-04T22:01:13.540Z,0
2017-12-04T22:02:13.775Z,0
2017-12-04T22:03:13.774Z,0
2017-12-04T22:04:13.496Z,0
2017-12-04T22:05:13.733Z,0
2017-12-04T22:06:13.985Z,0
2017-12-04T22:07:13.437Z,0
2017-12-04T22:08:13.410Z,0
2017-12-04T22:09:13.405Z,0
2017-12-04T22:10:13.910Z,0
2017-12-04T22:11:13.350Z,0
2017-12-04T22:12:13.052Z,0
2017-12-04T22:13:13.577Z,0
2017-12-04T22:14:13.563Z,0
2017-12-04T22:15:13.549Z,0
2017-12-04T22:16:13.015Z,0
2017-12-04T22:17:13.254Z,0
2017-12-04T22:18:13.235Z,0
2017-12-04T22:19:14.019Z,0
2017-12-04T22:20:13.733Z,0
2017-12-04T22:21:13.173Z,0
2017-12-04T22:22:12.876Z,0
2017-12-04T22:23:13.944Z,0
2017-12-04T22:24:12.858Z,0
2017-12-04T22:25:13.094Z,0
2017-12-04T22:26:13.350Z,0
2017-12-04T22:27:13.357Z,0
2017-12-04T22:28:13.070Z,0
2017-12-04T22:29:13.575Z,0
2017-12-04T22:30:13.016Z,0
2017-12-04T22:31:13.008Z,0
2017-12-04T22:32:13.279Z,0
2017-12-04T22:33:13.516Z,0
2017-12-04T22:34:13.223Z,0
2017-12-04T22:35:12.915Z,0
2017-12-04T22:36:13.177Z,0
2017-12-04T22:37:12.894Z,0
2017-12-04T22:38:13.178Z,0
2017-12-04T22:39:12.594Z,0
2017-12-04T22:40:13.123Z,0
2017-12-04T22:41:12.817Z,0
2017-12-04T22:42:12.518Z,0
2017-12-04T22:43:12.831Z,0
2017-12-04T22:44:13.311Z,0
2017-12-04T22:45:12.739Z,0
2017-12-04T22:46:20.519Z,0
2017-12-04T22:47:12.473Z,0
2017-12-04T22:48:12.418Z,0
2017-12-04T22:49:13.207Z,0
2017-12-04T22:50:12.668Z,0
2017-12-04T22:51:12.647Z,0
2017-12-04T22:52:12.887Z,0
2017-12-04T22:53:12.596Z,0
2017-12-04T22:54:12.866Z,0
2017-12-04T22:55:12.845Z,0
2017-12-04T22:56:12.549Z,0
2017-12-04T22:57:12.525Z,0
2017-12-04T22:58:12.781Z,0
2017-12-04T22:59:12.789Z,0
2017-12-04T23:00:13.046Z,0
2017-12-04T23:01:12.184Z,0
2017-12-04T23:02:12.449Z,0
2017-12-04T23:03:12.433Z,0
2017-12-04T23:04:12.404Z,0
2017-12-04T23:05:12.386Z,0
2017-12-04T23:06:12.959Z,0
2017-12-04T23:07:12.902Z,0
2017-12-04T23:08:12.602Z,0
2017-12-04T23:09:12.069Z,0
2017-12-04T23:10:12.581Z,0
2017-12-04T23:11:12.278Z,0
2017-12-04T23:12:12.531Z,0
2017-12-04T23:13:12.248Z,0
2017-12-04T23:14:12.224Z,0
2017-12-04T23:15:11.956Z,0
2017-12-04T23:16:12.760Z,0
2017-12-04T23:17:12.174Z,0
2017-12-04T23:18:12.160Z,0
2017-12-04T23:19:12.412Z,0
2017-12-04T23:20:11.863Z,0
2017-12-04T23:21:12.106Z,0
2017-12-04T23:22:12.369Z,0
2017-12-04T23:23:12.619Z,0
2017-12-04T23:24:12.356Z,0
2017-12-04T23:25:12.610Z,0
2017-12-04T23:26:12.568Z,0
2017-12-04T23:27:12.019Z,0
2017-12-04T23:28:12.263Z,0
2017-12-04T23:29:11.722Z,0
2017-12-04T23:30:11.978Z,0
2017-12-04T23:31:12.760Z,0
2017-12-04T23:32:12.458Z,0
2017-12-04T23:33:12.169Z,0
2017-12-04T23:34:12.151Z,0
2017-12-04T23:35:12.428Z,0
2017-12-04T23:36:12.401Z,0
2017-12-04T23:37:12.384Z,0
2017-12-04T23:38:12.352Z,0
2017-12-04T23:39:12.076Z,0
2017-12-04T23:40:11.773Z,0
2017-12-04T23:41:11.752Z,0
2017-12-04T23:42:12.019Z,0
2017-12-04T23:43:12.012Z,0
2017-12-04T23:44:11.723Z,0
2017-12-04T23:45:11.684Z,0
2017-12-04T23:46:11.961Z,0
2017-12-04T23:47:11.675Z,0
2017-12-04T23:48:11.909Z,0
2017-12-04T23:49:11.891Z,0
2017-12-04T23:50:12.166Z,0
2017-12-04T23:51:11.610Z,0
2017-12-04T23:52:11.590Z,0
2017-12-04T23:53:11.578Z,0
2017-12-04T23:54:11.692Z,0
2017-12-04T23:55:11.793Z,0
2017-12-04T23:56:11.791Z,0
2017-12-04T23:57:11.210Z,0
2017-12-04T23:58:11.193Z,0
2017-12-04T23:59:11.445Z,0
